createdAt,value
2017-11-23T00:02:29.536Z,27.90
2017-11-23T00:07:31.099Z,25.40
2017-11-23T00:12:32.698Z,22.30
2017-11-23T00:17:35.002Z,23.43
2017-11-23T00:22:37.315Z,18.80
2017-11-23T00:27:38.891Z,28.93
2017-11-23T00:32:40.419Z,32.60
2017-11-23T00:37:42.742Z,32.53
2017-11-23T00:42:44.293Z,20.87
2017-11-23T00:47:45.806Z,27.77
2017-11-23T00:52:47.329Z,21.10
2017-11-23T00:57:48.817Z,21.20
2017-11-23T01:02:50.394Z,20.50
2017-11-23T01:07:51.918Z,24.60
2017-11-23T01:12:54.210Z,23.73
2017-11-23T01:18:02.602Z,22.77
2017-11-23T01:23:04.102Z,25.03
2017-11-23T01:28:05.645Z,33.60
2017-11-23T01:33:07.958Z,17.97
2017-11-23T01:38:16.418Z,28.67
2017-11-23T01:43:17.911Z,25.10
2017-11-23T01:48:19.453Z,19.07
2017-11-23T01:53:20.963Z,25.53
2017-11-23T01:58:22.481Z,18.93
2017-11-23T02:03:23.995Z,19.23
2017-11-23T02:08:26.233Z,28.60
2017-11-23T02:13:27.803Z,24.47
2017-11-23T02:18:29.324Z,20.10
2017-11-23T02:23:31.601Z,19.33
2017-11-23T02:28:33.818Z,20.60
2017-11-23T02:33:35.325Z,24.50
2017-11-23T02:38:36.843Z,24.47
2017-11-23T02:43:38.354Z,30.87
2017-11-23T02:48:39.839Z,18.00
2017-11-23T02:53:41.336Z,14.60
2017-11-23T02:58:42.874Z,16.27
2017-11-23T03:03:44.370Z,24.87
2017-11-23T03:08:45.898Z,18.57
2017-11-23T03:13:47.414Z,24.90
2017-11-23T03:18:48.972Z,27.83
2017-11-23T03:23:50.481Z,27.43
2017-11-23T03:28:51.985Z,26.03
2017-11-23T03:33:54.243Z,30.10
2017-11-23T03:38:55.758Z,22.67
2017-11-23T03:43:57.374Z,31.13
2017-11-23T03:48:58.925Z,24.30
2017-11-23T03:54:00.427Z,32.10
2017-11-23T03:59:01.974Z,34.60
2017-11-23T04:04:03.715Z,24.00
2017-11-23T04:09:05.223Z,25.87
2017-11-23T04:14:06.770Z,30.73
2017-11-23T04:19:08.282Z,22.33
2017-11-23T04:24:10.548Z,29.00
2017-11-23T04:29:12.051Z,28.33
2017-11-23T04:34:13.588Z,27.63
2017-11-23T04:39:15.127Z,26.27
2017-11-23T04:44:16.638Z,26.40
2017-11-23T04:49:18.883Z,25.83
2017-11-23T04:54:20.419Z,27.00
2017-11-23T04:59:21.918Z,27.43
2017-11-23T05:04:23.451Z,28.83
2017-11-23T05:09:24.986Z,26.20
2017-11-23T05:14:27.307Z,23.77
2017-11-23T05:19:28.818Z,25.20
2017-11-23T05:24:30.353Z,31.53
2017-11-23T05:29:31.939Z,25.07
2017-11-23T05:34:33.644Z,19.97
2017-11-23T05:39:35.129Z,24.57
2017-11-23T05:44:36.655Z,30.60
2017-11-23T05:49:38.185Z,21.13
2017-11-23T05:54:39.732Z,22.97
2017-11-23T05:59:42.155Z,25.60
2017-11-23T06:04:43.690Z,21.07
2017-11-23T06:09:45.286Z,33.27
2017-11-23T06:14:46.835Z,25.33
2017-11-23T06:19:48.363Z,28.17
2017-11-23T06:24:49.898Z,21.47
2017-11-23T06:29:51.431Z,20.53
2017-11-23T06:34:52.978Z,22.93
2017-11-23T06:39:55.269Z,27.40
2017-11-23T06:44:56.752Z,33.77
2017-11-23T06:49:58.312Z,29.60
2017-11-23T06:55:00.563Z,23.10
2017-11-23T07:00:02.001Z,23.43
2017-11-23T07:05:03.613Z,35.53
2017-11-23T07:10:05.863Z,29.00
2017-11-23T07:15:07.382Z,28.40
2017-11-23T07:20:08.862Z,32.83
2017-11-23T07:25:10.381Z,27.57
2017-11-23T07:30:11.854Z,35.83
2017-11-23T07:35:14.135Z,25.03
2017-11-23T07:40:15.822Z,22.90
2017-11-23T07:45:18.095Z,27.33
2017-11-23T07:50:19.625Z,28.83
2017-11-23T07:55:21.130Z,19.17
2017-11-23T08:00:22.635Z,24.83
2017-11-23T08:05:24.099Z,21.20
2017-11-23T08:10:25.769Z,21.33
2017-11-23T08:15:27.271Z,23.93
2017-11-23T08:20:28.810Z,22.50
2017-11-23T08:25:30.320Z,28.73
2017-11-23T08:30:31.777Z,25.83
2017-11-23T08:35:33.341Z,27.47
2017-11-23T08:40:34.963Z,46.13
2017-11-23T08:45:36.483Z,23.30
2017-11-23T08:50:38.022Z,22.17
2017-11-23T08:55:39.576Z,23.93
2017-11-23T09:00:41.089Z,21.80
2017-11-23T09:05:44.510Z,25.50
2017-11-23T09:10:46.025Z,22.60
2017-11-23T09:15:47.522Z,17.00
2017-11-23T09:20:49.061Z,21.93
2017-11-23T09:25:50.557Z,24.53
2017-11-23T09:30:52.158Z,19.53
2017-11-23T09:35:54.425Z,17.77
2017-11-23T09:40:55.964Z,20.80
2017-11-23T09:45:57.507Z,19.60
2017-11-23T09:50:59.042Z,17.33
2017-11-23T09:56:01.325Z,21.90
2017-11-23T10:01:02.848Z,15.50
2017-11-23T10:06:04.362Z,19.10
2017-11-23T10:11:06.656Z,18.53
2017-11-23T10:16:08.942Z,15.23
2017-11-23T10:21:11.202Z,16.90
2017-11-23T10:26:12.715Z,16.53
2017-11-23T10:31:14.318Z,15.83
2017-11-23T10:36:15.845Z,14.73
2017-11-23T10:41:17.501Z,11.13
2017-11-23T10:46:19.891Z,11.87
2017-11-23T10:51:21.442Z,12.80
2017-11-23T10:56:23.756Z,14.67
2017-11-23T11:01:25.274Z,21.27
2017-11-23T11:06:26.814Z,18.60
2017-11-23T11:11:28.371Z,12.77
2017-11-23T11:16:29.918Z,9.43
2017-11-23T11:21:32.128Z,11.60
2017-11-23T11:26:33.732Z,13.60
2017-11-23T11:31:35.248Z,9.83
2017-11-23T11:36:36.770Z,10.50
2017-11-23T11:41:38.279Z,12.10
2017-11-23T11:46:39.817Z,19.13
2017-11-23T11:51:42.039Z,15.43
2017-11-23T11:56:43.539Z,12.40
2017-11-23T12:01:45.072Z,10.63
2017-11-23T12:06:46.584Z,10.10
2017-11-23T12:11:48.152Z,11.53
2017-11-23T12:17:05.519Z,10.13
2017-11-23T12:22:26.487Z,12.60
2017-11-23T12:27:46.279Z,12.03
2017-11-23T12:32:47.788Z,12.63
2017-11-23T12:37:50.066Z,12.40
2017-11-23T12:42:51.606Z,10.93
2017-11-23T12:47:53.115Z,9.03
2017-11-23T12:52:55.412Z,9.20
2017-11-23T12:57:56.929Z,9.83
2017-11-23T13:02:58.464Z,13.63
2017-11-23T13:08:00.028Z,9.50
2017-11-23T13:13:01.550Z,12.23
2017-11-23T13:18:03.098Z,6.80
2017-11-23T13:23:04.618Z,9.77
2017-11-23T13:28:06.152Z,8.20
2017-11-23T13:33:07.713Z,9.50
2017-11-23T13:38:09.248Z,8.20
2017-11-23T13:43:10.796Z,8.83
2017-11-23T13:48:12.329Z,5.40
2017-11-23T13:53:14.570Z,10.47
2017-11-23T13:58:16.124Z,12.20
2017-11-23T14:03:17.672Z,12.97
2017-11-23T14:08:19.194Z,7.57
2017-11-23T14:13:20.742Z,13.10
2017-11-23T14:18:22.270Z,9.37
2017-11-23T14:23:23.835Z,7.70
2017-11-23T14:28:25.349Z,8.13
2017-11-23T14:33:26.898Z,7.70
2017-11-23T14:38:28.639Z,9.20
2017-11-23T14:43:30.180Z,7.80
2017-11-23T14:48:31.750Z,13.83
2017-11-23T14:53:33.267Z,11.03
2017-11-23T14:58:34.790Z,6.63
2017-11-23T15:03:37.062Z,9.20
2017-11-23T15:08:38.822Z,7.10
2017-11-23T15:13:40.339Z,8.10
2017-11-23T15:18:41.970Z,9.00
2017-11-23T15:23:43.526Z,15.67
2017-11-23T15:28:45.073Z,10.07
2017-11-23T15:33:46.584Z,15.77
2017-11-23T15:38:48.850Z,9.80
2017-11-23T15:43:50.458Z,6.30
2017-11-23T15:48:52.041Z,9.90
2017-11-23T15:53:53.555Z,7.80
2017-11-23T15:58:55.091Z,6.37
2017-11-23T16:03:56.660Z,7.17
2017-11-23T16:08:58.212Z,10.57
2017-11-23T16:13:59.740Z,6.23
2017-11-23T16:19:02.055Z,12.57
2017-11-23T16:24:03.595Z,10.87
2017-11-23T16:29:05.942Z,7.10
2017-11-23T16:34:07.483Z,9.80
2017-11-23T16:55:19.086Z,8.60
2017-11-23T17:16:29.410Z,9.27
2017-11-23T17:21:30.966Z,7.37
2017-11-23T17:26:32.506Z,6.80
2017-11-23T17:31:34.046Z,17.03
2017-11-23T17:36:35.615Z,13.80
2017-11-23T17:41:37.155Z,6.53
2017-11-23T17:46:38.756Z,10.60
2017-11-23T17:51:40.295Z,10.87
2017-11-23T17:56:42.654Z,11.43
2017-11-23T18:01:44.209Z,7.50
2017-11-23T18:06:45.771Z,6.40
2017-11-23T18:11:47.314Z,13.87
2017-11-23T18:16:48.865Z,7.07
2017-11-23T18:21:51.173Z,8.00
2017-11-23T18:26:52.734Z,10.30
2017-11-23T18:31:54.316Z,7.63
2017-11-23T18:36:55.910Z,10.77
2017-11-23T18:41:57.475Z,13.23
2017-11-23T18:47:01.474Z,14.60
2017-11-23T18:52:03.261Z,11.30
2017-11-23T18:57:05.004Z,8.20
2017-11-23T19:02:06.504Z,11.13
2017-11-23T19:07:08.038Z,12.40
2017-11-23T19:12:09.622Z,9.20
2017-11-23T19:17:11.162Z,10.53
2017-11-23T19:22:12.696Z,12.13
2017-11-23T19:27:14.235Z,17.10
2017-11-23T19:32:15.870Z,10.00
2017-11-23T19:37:17.412Z,15.10
2017-11-23T19:42:19.736Z,10.57
2017-11-23T19:47:21.347Z,11.53
2017-11-23T19:52:22.883Z,17.83
2017-11-23T19:57:24.407Z,11.37
2017-11-23T20:02:26.639Z,12.07
2017-11-23T20:07:28.189Z,10.83
2017-11-23T20:12:29.724Z,12.10
2017-11-23T20:17:31.968Z,11.93
2017-11-23T20:22:33.520Z,19.10
2017-11-23T20:27:35.105Z,14.10
2017-11-23T20:32:36.572Z,13.57
2017-11-23T20:37:44.921Z,12.53
2017-11-23T20:42:46.423Z,8.87
2017-11-23T20:47:47.909Z,11.93
2017-11-23T20:52:49.483Z,10.57
2017-11-23T20:57:51.043Z,9.67
2017-11-23T21:02:52.696Z,11.03
2017-11-23T21:07:54.395Z,11.77
2017-11-23T21:12:55.981Z,12.33
2017-11-23T21:17:57.559Z,19.60
2017-11-23T21:22:59.070Z,13.20
2017-11-23T21:28:00.727Z,17.17
2017-11-23T21:33:02.990Z,16.17
2017-11-23T21:38:04.527Z,15.30
2017-11-23T21:43:06.062Z,15.23
2017-11-23T21:48:07.590Z,12.20
2017-11-23T21:53:09.141Z,10.70
2017-11-23T21:58:10.740Z,13.23
2017-11-23T22:03:12.270Z,14.93
2017-11-23T22:08:13.854Z,13.37
2017-11-23T22:13:15.428Z,13.57
2017-11-23T22:18:17.062Z,12.60
2017-11-23T22:23:18.621Z,10.17
2017-11-23T22:28:20.222Z,18.90
2017-11-23T22:33:21.817Z,11.27
2017-11-23T22:38:24.058Z,13.03
2017-11-23T22:43:25.568Z,17.40
2017-11-23T22:48:27.251Z,11.67
2017-11-23T22:53:29.530Z,16.50
2017-11-23T22:58:31.815Z,17.13
2017-11-23T23:03:34.088Z,15.60
2017-11-23T23:08:35.598Z,16.80
2017-11-23T23:13:37.120Z,17.23
2017-11-23T23:18:38.640Z,14.43
2017-11-23T23:23:40.155Z,10.13
2017-11-23T23:28:41.703Z,12.30
2017-11-23T23:33:43.254Z,10.80
2017-11-23T23:38:44.768Z,13.70
2017-11-23T23:43:47.036Z,17.27
2017-11-23T23:48:48.551Z,10.53
2017-11-23T23:53:50.110Z,14.70
2017-11-23T23:58:51.613Z,10.63
